Time;durP1;ratioP1;P1;durP2;ratioP2;P2;SDS_P1;SDS_P2;PMS_P1;PMS_P2;Temp;Humidity;BMP_temperature;BMP_pressure;BME280_temperature;BME280_humidity;BME280_pressure;Samples;Min_cycle;Max_cycle;Signal;HPM_P1;HPM_P2
2022/12/12 00:00:31;;;;;;;15.23;12.07;;;;;;;5.87;100.00;100280.94;2102637;28;20201;-65
2022/12/12 00:01:36;;;;;;;17.70;13.30;;;;;;;5.30;100.00;100215.91;2099637;28;20636;-65
2022/12/12 00:02:38;;;;;;;16.08;12.90;;;;;;;5.82;100.00;100310.84;2104637;28;20684;-66
2022/12/12 00:03:38;;;;;;;15.75;12.90;;;;;;;5.75;100.00;100311.66;2097838;28;20179;-65
2022/12/12 00:04:38;;;;;;;18.73;13.80;;;;;;;5.76;100.00;100315.97;2106231;28;20718;-65
2022/12/12 00:05:39;;;;;;;17.53;13.43;;;;;;;5.80;100.00;100321.47;2098333;28;20188;-66
2022/12/12 00:06:40;;;;;;;17.60;13.67;;;;;;;5.75;100.00;100328.16;2104457;28;20554;-66
2022/12/12 00:07:40;;;;;;;16.97;13.77;;;;;;;5.70;100.00;100322.31;2100395;28;20278;-65
2022/12/12 00:08:41;;;;;;;17.77;13.13;;;;;;;5.17;100.00;100281.53;2102240;28;20554;-65
2022/12/12 00:09:42;;;;;;;18.47;13.97;;;;;;;5.61;100.00;100320.03;2102693;28;20222;-66
2022/12/12 00:10:42;;;;;;;17.70;13.57;;;;;;;5.60;100.00;100325.94;2097065;28;20817;-65
2022/12/12 00:11:42;;;;;;;17.20;13.80;;;;;;;5.54;100.00;100319.31;2096646;28;20174;-65
2022/12/12 00:12:43;;;;;;;19.60;14.83;;;;;;;5.49;100.00;100328.75;2089729;28;20183;-65
2022/12/12 00:13:43;;;;;;;16.97;13.60;;;;;;;5.51;100.00;100331.13;2106089;28;20198;-65
2022/12/12 00:14:44;;;;;;;17.97;14.07;;;;;;;5.49;100.00;100323.25;2097690;28;20194;-66
2022/12/12 00:15:44;;;;;;;18.13;14.03;;;;;;;5.53;100.00;100329.53;2103777;28;20250;-66
2022/12/12 00:16:45;;;;;;;17.67;13.73;;;;;;;5.58;100.00;100331.84;2101031;28;20224;-66
2022/12/12 00:17:45;;;;;;;18.70;13.37;;;;;;;5.54;100.00;100322.84;2101455;28;20228;-66
2022/12/12 00:18:47;;;;;;;18.77;13.63;;;;;;;5.67;100.00;100334.91;2103278;28;20174;-66
2022/12/12 00:19:47;;;;;;;20.17;14.93;;;;;;;5.75;100.00;100339.16;2099153;28;20179;-66
2022/12/12 00:20:55;;;;;;;17.50;13.57;;;;;;;5.80;100.00;100333.25;2104848;28;20636;-65
2022/12/12 00:21:56;;;;;;;17.95;14.20;;;;;;;5.82;100.00;100325.38;2097965;28;20182;-66
2022/12/12 00:22:56;;;;;;;17.50;13.50;;;;;;;5.78;100.00;100335.59;2106205;28;20174;-66
2022/12/12 00:23:57;;;;;;;16.60;13.50;;;;;;;5.83;100.00;100321.44;2098146;28;20189;-66
2022/12/12 00:24:58;;;;;;;17.37;13.57;;;;;;;5.88;100.00;100321.00;2097267;28;20190;-66
2022/12/12 00:26:03;;;;;;;17.63;13.63;;;;;;;5.54;100.00;100253.38;2097477;28;20215;-66
2022/12/12 00:27:03;;;;;;;16.75;12.73;;;;;;;5.04;100.00;100181.59;2097702;28;20288;-66
2022/12/12 00:28:04;;;;;;;17.37;13.23;;;;;;;5.94;100.00;100324.84;2097521;28;20182;-66
2022/12/12 00:29:04;;;;;;;18.13;13.77;;;;;;;5.98;100.00;100319.31;2100237;28;20241;-66
2022/12/12 00:30:05;;;;;;;17.97;13.67;;;;;;;5.96;100.00;100316.22;2104262;28;20186;-65
2022/12/12 00:31:06;;;;;;;19.02;14.18;;;;;;;5.81;100.00;100299.06;2096968;28;20652;-65
2022/12/12 00:32:06;;;;;;;18.80;14.23;;;;;;;5.88;100.00;100317.44;2097766;28;20171;-65
2022/12/12 00:33:07;;;;;;;18.47;13.57;;;;;;;4.94;100.00;100176.97;2097631;28;20576;-65
2022/12/12 00:34:07;;;;;;;17.00;14.00;;;;;;;5.77;100.00;100323.03;2097642;28;20194;-65
2022/12/12 00:35:08;;;;;;;16.17;13.03;;;;;;;5.01;100.00;100229.09;2096934;28;20186;-65
2022/12/12 00:36:08;;;;;;;16.53;12.93;;;;;;;5.60;100.00;100332.19;2097506;28;20202;-65
2022/12/12 00:37:09;;;;;;;16.60;12.87;;;;;;;5.55;100.00;100324.38;2097561;28;20256;-66
2022/12/12 00:38:09;;;;;;;16.20;12.67;;;;;;;5.47;100.00;100328.41;2097457;28;20174;-65
2022/12/12 00:39:10;;;;;;;15.70;12.37;;;;;;;5.00;100.00;100265.97;2097514;28;20179;-65
2022/12/12 00:40:11;;;;;;;15.67;12.83;;;;;;;5.35;100.00;100322.59;2097091;28;20182;-65
2022/12/12 00:41:11;;;;;;;17.00;13.23;;;;;;;5.27;100.00;100316.38;2088295;28;20657;-65
2022/12/12 00:42:12;;;;;;;16.43;13.03;;;;;;;5.39;100.00;100331.63;2089342;28;20191;-65
2022/12/12 00:43:13;;;;;;;15.63;12.27;;;;;;;5.37;100.00;100332.00;2089727;28;20681;-66
2022/12/12 00:44:13;;;;;;;15.97;12.40;;;;;;;5.37;100.00;100329.25;2097618;28;20209;-66
2022/12/12 00:45:14;;;;;;;15.73;12.43;;;;;;;4.70;100.00;100215.56;2097036;28;20198;-66
2022/12/12 00:46:16;;;;;;;16.33;12.70;;;;;;;4.86;100.00;100251.53;2094608;28;20629;-66
2022/12/12 00:47:17;;;;;;;16.45;12.60;;;;;;;5.26;100.00;100295.59;2091102;28;20652;-66
2022/12/12 00:48:17;;;;;;;15.67;11.90;;;;;;;5.44;100.00;100323.69;2097398;28;20584;-66
2022/12/12 00:49:18;;;;;;;16.40;12.87;;;;;;;5.47;100.00;100324.84;2097639;28;20208;-66
2022/12/12 00:50:18;;;;;;;16.10;12.97;;;;;;;5.48;100.00;100320.94;2097324;28;20246;-66
2022/12/12 00:51:21;;;;;;;15.93;12.10;;;;;;;5.47;100.00;100313.88;2097064;28;20195;-66
2022/12/12 00:52:21;;;;;;;15.38;12.35;;;;;;;5.46;100.00;100315.06;2097352;28;20195;-66
2022/12/12 00:53:22;;;;;;;16.97;13.50;;;;;;;5.21;100.00;100276.81;2097511;28;20191;-66
2022/12/12 00:54:22;;;;;;;16.60;12.73;;;;;;;5.49;100.00;100317.00;2097342;28;20216;-66
2022/12/12 00:55:24;;;;;;;16.47;12.53;;;;;;;5.50;100.00;100326.81;2096819;28;20203;-66
2022/12/12 00:56:25;;;;;;;16.23;12.77;;;;;;;5.50;100.00;100326.81;2095596;28;20174;-66
2022/12/12 00:57:26;;;;;;;18.50;13.05;;;;;;;5.52;100.00;100329.91;2092866;28;20565;-66
2022/12/12 00:58:26;;;;;;;16.87;12.77;;;;;;;5.53;100.00;100324.03;2092013;28;20371;-66
2022/12/12 00:59:27;;;;;;;15.93;12.73;;;;;;;5.48;100.00;100318.19;2089423;28;20416;-66
2022/12/12 01:00:28;;;;;;;16.80;13.67;;;;;;;5.50;100.00;100329.56;2088562;28;20607;-66
2022/12/12 01:01:30;;;;;;;18.17;13.27;;;;;;;5.50;100.00;100327.59;2089193;28;20187;-66
2022/12/12 01:02:30;;;;;;;18.60;13.25;;;;;;;5.50;100.00;100338.59;2089326;28;20253;-66
2022/12/12 01:03:32;;;;;;;18.83;12.97;;;;;;;5.52;100.00;100340.91;2089191;28;20237;-66
2022/12/12 01:04:33;;;;;;;17.83;12.88;;;;;;;5.52;100.00;100347.22;2103315;28;20487;-66
2022/12/12 01:05:34;;;;;;;16.70;12.80;;;;;;;5.53;100.00;100339.75;2098745;28;20199;-66
2022/12/12 01:06:35;;;;;;;18.33;13.07;;;;;;;5.51;100.00;100340.16;2101606;28;20190;-66
2022/12/12 01:07:36;;;;;;;21.05;13.25;;;;;;;5.50;100.00;100338.59;2101782;28;20198;-66
2022/12/12 01:08:37;;;;;;;18.52;13.85;;;;;;;4.61;100.00;100198.81;2100152;28;20232;-66
2022/12/12 01:09:38;;;;;;;19.75;13.70;;;;;;;5.50;100.00;100332.31;2103891;28;20717;-66
2022/12/12 01:10:39;;;;;;;16.57;12.93;;;;;;;5.42;100.00;100315.09;2097432;28;20554;-66
2022/12/12 01:11:39;;;;;;;20.27;14.13;;;;;;;5.48;100.00;100323.69;2105910;28;20592;-66
2022/12/12 01:12:40;;;;;;;19.83;14.33;;;;;;;5.44;100.00;100318.19;2097916;28;20210;-66
2022/12/12 01:13:42;;;;;;;19.20;14.20;;;;;;;5.43;100.00;100321.38;2104352;28;20185;-66
2022/12/12 01:14:43;;;;;;;19.73;15.57;;;;;;;4.39;100.00;100165.22;2099914;28;20206;-66
2022/12/12 01:15:43;;;;;;;18.33;14.33;;;;;;;4.72;100.00;100215.97;2101833;28;20269;-66
2022/12/12 01:16:44;;;;;;;16.50;12.77;;;;;;;5.39;100.00;100331.63;2101836;28;20637;-66
2022/12/12 01:17:44;;;;;;;17.50;12.57;;;;;;;5.37;100.00;100326.50;2099885;28;20182;-66
2022/12/12 01:18:45;;;;;;;18.33;13.77;;;;;;;5.36;100.00;100338.69;2104156;28;20590;-66
2022/12/12 01:19:45;;;;;;;18.67;14.40;;;;;;;5.30;100.00;100342.28;2097606;28;20181;-66
2022/12/12 01:20:46;;;;;;;18.60;14.20;;;;;;;4.37;100.00;100192.25;2105345;28;20564;-66
2022/12/12 01:21:46;;;;;;;17.30;14.00;;;;;;;5.28;100.00;100342.66;2097989;28;20214;-66
2022/12/12 01:22:47;;;;;;;16.00;12.73;;;;;;;5.22;100.00;100341.53;2096656;28;20197;-66
2022/12/12 01:23:47;;;;;;;16.90;13.37;;;;;;;5.23;100.00;100347.81;2096669;28;20745;-65
2022/12/12 01:24:48;;;;;;;14.80;12.17;;;;;;;4.39;100.00;100211.84;2093086;28;20195;-66
2022/12/12 01:25:48;;;;;;;15.20;12.40;;;;;;;5.24;100.00;100352.13;2089310;28;20517;-66
2022/12/12 01:26:49;;;;;;;15.10;11.53;;;;;;;5.21;100.00;100350.16;2092188;28;20207;-66
2022/12/12 01:27:50;;;;;;;15.70;12.27;;;;;;;4.62;100.00;100247.00;2098966;28;20678;-66
2022/12/12 01:28:51;;;;;;;14.50;11.27;;;;;;;5.23;100.00;100347.81;2099069;28;20171;-66
2022/12/12 01:29:52;;;;;;;13.25;10.98;;;;;;;4.69;100.00;100266.16;2090648;28;20674;-66
2022/12/12 01:30:52;;;;;;;14.33;11.33;;;;;;;4.05;100.00;100172.44;2090093;28;20629;-66
2022/12/12 01:31:53;;;;;;;13.03;10.53;;;;;;;5.19;100.00;100347.81;2096559;28;20688;-66
2022/12/12 01:32:53;;;;;;;13.90;10.93;;;;;;;5.19;100.00;100342.31;2098821;28;20277;-66
2022/12/12 01:33:54;;;;;;;14.53;10.97;;;;;;;5.21;100.00;100344.69;2095150;28;20583;-66
2022/12/12 01:34:54;;;;;;;14.63;10.77;;;;;;;5.18;100.00;100349.00;2090596;28;20626;-66
2022/12/12 01:35:55;;;;;;;14.47;11.27;;;;;;;5.17;100.00;100363.94;2092093;28;20189;-66
2022/12/12 01:36:56;;;;;;;14.07;10.70;;;;;;;5.07;100.00;100336.56;2098415;28;20563;-66
2022/12/12 01:37:56;;;;;;;13.17;11.10;;;;;;;5.12;100.00;100347.13;2099051;28;20650;-66
2022/12/12 01:38:58;;;;;;;14.70;10.80;;;;;;;5.08;100.00;100352.59;2091378;28;20200;-66
2022/12/12 01:39:58;;;;;;;14.90;12.07;;;;;;;4.96;100.00;100352.28;2090599;28;20183;-66
2022/12/12 01:40:59;;;;;;;15.83;12.50;;;;;;;4.54;100.00;100303.88;2095688;28;20199;-65
2022/12/12 01:41:59;;;;;;;14.40;11.67;;;;;;;4.55;100.00;100310.94;2098864;28;20194;-65
2022/12/12 01:43:00;;;;;;;16.57;12.30;;;;;;;4.87;100.00;100373.94;2095408;28;20222;-66
2022/12/12 01:44:03;;;;;;;14.97;12.17;;;;;;;4.89;100.00;100382.53;2095566;28;20208;-66
2022/12/12 01:45:04;;;;;;;16.17;12.60;;;;;;;4.31;100.00;100292.63;2091936;28;20175;-66
2022/12/12 01:46:04;;;;;;;14.03;11.67;;;;;;;4.88;100.00;100375.50;2098656;28;20243;-65
2022/12/12 01:47:05;;;;;;;17.13;12.93;;;;;;;4.90;100.00;100376.66;2098523;28;20289;-66
2022/12/12 01:48:05;;;;;;;16.17;11.77;;;;;;;4.82;100.00;100371.59;2097991;28;20202;-65
2022/12/12 01:49:32;;;;;;;15.23;12.37;;;;;;;3.88;100.00;100244.59;2098132;28;20206;-66
2022/12/12 01:50:33;;;;;;;14.52;11.85;;;;;;;4.75;100.00;100377.09;2098439;28;20236;-66
2022/12/12 01:51:33;;;;;;;14.83;11.77;;;;;;;4.74;100.00;100375.53;2098765;28;20191;-66
2022/12/12 01:52:42;;;;;;;15.17;12.13;;;;;;;4.54;100.00;100341.50;2098851;28;20194;-66
2022/12/12 01:53:44;;;;;;;15.00;12.52;;;;;;;4.73;100.00;100376.72;2098754;28;20192;-65
2022/12/12 01:54:49;;;;;;;16.85;13.00;;;;;;;4.74;100.00;100376.34;2095498;28;20203;-65
2022/12/12 01:55:50;;;;;;;16.58;12.43;;;;;;;4.65;100.00;100375.97;2098604;28;20260;-66
2022/12/12 01:56:53;;;;;;;16.70;12.70;;;;;;;4.66;100.00;100380.28;2098763;28;20341;-66
2022/12/12 01:57:54;;;;;;;15.57;12.52;;;;;;;4.56;100.00;100366.63;2098223;28;20603;-66
2022/12/12 01:58:56;;;;;;;17.77;13.30;;;;;;;4.56;100.00;100383.84;2096103;28;20257;-66
2022/12/12 01:59:59;;;;;;;17.70;13.13;;;;;;;3.91;100.00;100275.91;2099559;28;20175;-66
2022/12/12 02:01:01;;;;;;;17.55;12.80;;;;;;;4.56;100.00;100370.13;2105519;28;20253;-66
2022/12/12 02:02:01;;;;;;;16.45;13.13;;;;;;;4.56;100.00;100367.38;2098962;28;20179;-66
2022/12/12 02:03:02;;;;;;;16.83;14.17;;;;;;;4.23;100.00;100307.53;2107067;28;20224;-65
2022/12/12 02:04:03;;;;;;;18.60;13.50;;;;;;;3.84;100.00;100224.63;2099887;28;20190;-65
2022/12/12 02:05:19;;;;;;;16.10;12.93;;;;;;;4.77;100.00;100355.53;2104731;28;20197;-65
2022/12/12 02:06:25;;;;;;;15.55;12.00;;;;;;;4.14;100.00;100249.59;2099855;28;20654;-66
2022/12/12 02:07:25;;;;;;;17.20;12.60;;;;;;;4.54;100.00;100303.88;2098487;28;20323;-66
2022/12/12 02:08:26;;;;;;;16.63;12.80;;;;;;;4.95;100.00;100358.97;2098370;28;20235;-66
2022/12/12 02:09:27;;;;;;;15.63;11.43;;;;;;;5.01;100.00;100360.91;2098459;28;20738;-66
2022/12/12 02:10:28;;;;;;;17.20;11.97;;;;;;;5.07;100.00;100355.78;2098138;28;20637;-66
2022/12/12 02:11:31;;;;;;;15.30;11.80;;;;;;;5.11;100.00;100357.31;2100859;28;20544;-65
2022/12/12 02:12:31;;;;;;;17.30;12.70;;;;;;;5.15;100.00;100371.00;2105468;28;20308;-66
2022/12/12 02:13:33;;;;;;;15.27;11.77;;;;;;;4.32;100.00;100224.84;2098868;28;20655;-66
2022/12/12 02:14:38;;;;;;;14.70;11.40;;;;;;;4.27;100.00;100223.25;2107197;28;20186;-66
2022/12/12 02:15:54;;;;;;;15.05;11.65;;;;;;;5.25;100.00;100359.97;2098850;28;20616;-66
2022/12/12 02:17:07;;;;;;;16.23;12.52;;;;;;;5.32;100.00;100359.13;2107167;28;20170;-66
2022/12/12 02:18:19;;;;;;;15.90;12.23;;;;;;;5.34;100.00;100363.03;2098543;28;20177;-66
2022/12/12 02:19:38;;;;;;;15.93;11.95;;;;;;;5.40;100.00;100357.91;2105982;28;20161;-66
2022/12/12 02:21:10;;;;;;;15.60;12.50;;;;;;;5.30;100.00;100351.31;2097977;28;20203;-66
2022/12/12 02:22:25;;;;;;;16.85;12.05;;;;;;;5.22;100.00;100355.28;2085057;28;20237;-65
2022/12/12 02:23:58;;;;;;;15.57;11.65;;;;;;;5.14;100.00;100351.00;2098605;28;20195;-65
2022/12/12 02:25:17;;;;;;;16.55;12.40;;;;;;;5.04;100.00;100353.81;2073114;28;20223;-65
2022/12/12 02:26:24;;;;;;;15.75;11.73;;;;;;;4.85;100.00;100359.81;2096554;28;20655;-65
2022/12/12 02:27:33;;;;;;;17.95;12.65;;;;;;;4.79;100.00;100356.72;2089456;28;20215;-65
2022/12/12 02:28:42;;;;;;;16.92;12.65;;;;;;;4.72;100.00;100359.47;2089350;28;20672;-65
2022/12/12 02:30:00;;;;;;;17.40;12.93;;;;;;;4.72;100.00;100364.97;2091655;28;20222;-65
2022/12/12 02:31:18;;;;;;;15.10;11.73;;;;;;;4.73;100.00;100354.78;2097933;28;20272;-65
2022/12/12 02:32:45;;;;;;;15.90;12.48;;;;;;;4.80;100.00;100362.97;2094248;28;20198;-65
2022/12/12 02:33:58;;;;;;;19.13;12.98;;;;;;;4.74;100.00;100359.88;2096579;28;20203;-66
2022/12/12 02:35:18;;;;;;;16.77;12.10;;;;;;;4.75;100.00;100363.38;2098578;28;20248;-66
2022/12/12 02:36:18;;;;;;;15.38;11.98;;;;;;;4.83;100.00;100360.19;2090365;28;20178;-65
2022/12/12 02:37:42;;;;;;;18.77;12.50;;;;;;;4.84;100.00;100353.53;2097648;28;20679;-65
2022/12/12 02:38:56;;;;;;;16.45;12.30;;;;;;;4.79;100.00;100355.91;2090140;28;20648;-65
2022/12/12 02:40:02;;;;;;;15.25;11.82;;;;;;;4.90;100.00;100362.94;2099508;28;20157;-65
2022/12/12 02:41:13;;;;;;;13.75;10.63;;;;;;;4.99;100.00;100352.28;2104638;28;20732;-65
2022/12/12 02:42:22;;;;;;;15.57;11.85;;;;;;;5.07;100.00;100348.31;2098989;28;20174;-66
2022/12/12 02:43:56;;;;;;;15.40;11.23;;;;;;;5.10;100.00;100349.47;2104393;28;20653;-65
2022/12/12 02:45:21;;;;;;;15.07;11.32;;;;;;;5.09;100.00;100350.66;2098884;28;20284;-65
2022/12/12 02:46:37;;;;;;;17.58;11.98;;;;;;;5.15;100.00;100349.03;2099678;28;20725;-66
2022/12/12 02:47:47;;;;;;;14.55;11.00;;;;;;;5.19;100.00;100347.81;2106338;28;20280;-66
2022/12/12 02:48:54;;;;;;;16.25;11.55;;;;;;;5.14;100.00;100340.00;2098308;28;20194;-66
2022/12/12 02:50:10;;;;;;;15.38;11.98;;;;;;;5.32;100.00;100348.13;2090607;28;20190;-65
2022/12/12 02:51:12;;;;;;;15.05;11.60;;;;;;;5.39;100.00;100343.38;2089738;28;20625;-65
2022/12/12 02:52:14;;;;;;;15.30;11.23;;;;;;;5.43;100.00;100346.13;2090226;28;20190;-65
2022/12/12 02:53:20;;;;;;;16.05;10.40;;;;;;;5.47;100.00;100349.59;2097135;28;20268;-65
2022/12/12 02:54:21;;;;;;;15.40;11.63;;;;;;;5.53;100.00;100348.75;2105122;28;20197;-66
2022/12/12 02:55:22;;;;;;;16.63;11.70;;;;;;;5.58;100.00;100361.28;2098656;28;20244;-66
2022/12/12 02:56:48;;;;;;;16.67;11.50;;;;;;;4.82;100.00;100226.09;2102827;28;20199;-65
2022/12/12 02:57:51;;;;;;;15.45;11.85;;;;;;;5.78;100.00;100352.09;2099473;28;20242;-66
2022/12/12 02:58:52;;;;;;;14.88;11.13;;;;;;;5.82;100.00;100352.09;2114196;28;20309;-66
2022/12/12 02:59:59;;;;;;;16.10;12.00;;;;;;;5.84;100.00;100349.72;2114007;28;20185;-65
2022/12/12 03:01:20;;;;;;;16.52;12.20;;;;;;;5.86;100.00;100350.09;2097707;28;20297;-66
2022/12/12 03:02:42;;;;;;;15.85;12.05;;;;;;;5.96;100.00;100340.97;2098323;28;20660;-66
2022/12/12 03:08:39;;;;;;;14.65;11.90;;;;;;;6.10;100.00;100344.34;2089940;28;20168;-65
2022/12/12 03:09:58;;;;;;;15.48;11.85;;;;;;;6.15;100.00;100343.91;2090404;28;20211;-65
2022/12/12 03:11:02;;;;;;;16.27;11.70;;;;;;;6.21;100.00;100333.25;2095285;28;20163;-66
2022/12/12 03:12:05;;;;;;;17.75;11.93;;;;;;;5.62;100.00;100241.09;2091560;28;20254;-65
2022/12/12 03:13:30;;;;;;;16.30;12.32;;;;;;;6.25;100.00;100334.75;2097041;28;20263;-66
2022/12/12 03:14:33;;;;;;;16.58;11.90;;;;;;;6.27;100.00;100334.34;2093187;28;20653;-65
2022/12/12 03:15:46;;;;;;;14.52;11.70;;;;;;;6.26;100.00;100339.06;2098135;28;20547;-66
2022/12/12 03:16:58;;;;;;;14.52;10.55;;;;;;;5.82;100.00;100267.63;2095031;28;20298;-66
2022/12/12 03:18:26;;;;;;;16.15;11.95;;;;;;;6.32;100.00;100340.19;2093344;28;20312;-66
2022/12/12 03:19:42;;;;;;;15.00;11.60;;;;;;;6.38;100.00;100346.00;2098043;28;20565;-66
2022/12/12 03:21:03;;;;;;;15.07;11.35;;;;;;;6.41;100.00;100337.72;2096618;28;20219;-66
2022/12/12 03:22:24;;;;;;;14.88;11.45;;;;;;;6.44;100.00;100344.34;2089348;28;20191;-66
2022/12/12 03:23:30;;;;;;;17.10;12.10;;;;;;;6.50;100.00;100345.47;2090813;28;20171;-66
2022/12/12 03:24:49;;;;;;;17.40;11.82;;;;;;;6.51;100.00;100347.03;2098057;28;20216;-66
2022/12/12 03:26:21;;;;;;;15.18;11.07;;;;;;;6.51;100.00;100342.31;2097941;28;20175;-66
2022/12/12 03:27:43;;;;;;;14.80;11.05;;;;;;;6.14;100.00;100289.28;2098148;28;20187;-65
2022/12/12 03:29:09;;;;;;;15.65;11.82;;;;;;;6.53;100.00;100336.41;2098036;28;20175;-65
2022/12/12 03:30:13;;;;;;;15.57;11.27;;;;;;;5.86;100.00;100229.09;2088295;28;20212;-65
2022/12/12 03:31:18;;;;;;;14.10;11.15;;;;;;;6.51;100.00;100319.53;2097536;28;20190;-65
2022/12/12 03:32:24;;;;;;;17.10;12.00;;;;;;;6.49;100.00;100311.66;2089939;28;20200;-65
2022/12/12 03:34:11;;;;;;;15.50;12.35;;;;;;;6.28;100.00;100314.69;2097812;28;20579;-65
2022/12/12 03:35:38;;;;;;;16.92;11.65;;;;;;;6.12;100.00;100300.72;2089801;28;20199;-65
2022/12/12 03:36:45;;;;;;;17.35;13.07;;;;;;;5.26;100.00;100188.47;2092570;28;20295;-65
2022/12/12 03:37:50;;;;;;;16.27;12.57;;;;;;;5.89;100.00;100303.31;2097380;28;20276;-65
2022/12/12 03:39:25;;;;;;;18.10;12.82;;;;;;;5.88;100.00;100306.44;2098091;28;20679;-65
2022/12/12 03:40:32;;;;;;;17.83;12.82;;;;;;;5.79;100.00;100301.41;2086856;28;20200;-65
2022/12/12 03:41:37;;;;;;;17.95;13.38;;;;;;;5.82;100.00;100299.84;2089255;28;20211;-65
2022/12/12 03:42:47;;;;;;;16.92;12.25;;;;;;;5.77;100.00;100308.50;2089383;28;20255;-65
2022/12/12 03:44:17;;;;;;;19.67;12.90;;;;;;;5.60;100.00;100309.44;2095211;28;20181;-65
2022/12/12 03:45:50;;;;;;;16.30;12.70;;;;;;;5.45;100.00;100316.25;2091059;28;20198;-64
2022/12/12 03:47:04;;;;;;;17.75;12.23;;;;;;;5.35;100.00;100317.13;2080347;28;20205;-65
2022/12/12 03:48:31;;;;;;;18.10;12.93;;;;;;;5.28;100.00;100317.19;2101900;28;20552;-64
2022/12/12 03:49:56;;;;;;;18.42;12.90;;;;;;;5.13;100.00;100316.47;2085803;28;20222;-65
2022/12/12 03:51:15;;;;;;;17.25;12.77;;;;;;;4.99;100.00;100311.09;2088616;28;20178;-64
2022/12/12 03:52:36;;;;;;;17.75;12.68;;;;;;;4.93;100.00;100320.16;2092687;28;20189;-64
2022/12/12 03:53:52;;;;;;;21.48;13.93;;;;;;;4.97;100.00;100324.44;2097934;28;20190;-64
2022/12/12 03:55:01;;;;;;;20.77;13.80;;;;;;;4.80;100.00;100310.81;2097800;28;20186;-64
2022/12/12 03:56:24;;;;;;;20.73;13.50;;;;;;;4.01;100.00;100210.06;2091818;28;20200;-65
2022/12/12 03:57:35;;;;;;;20.45;14.40;;;;;;;4.45;100.00;100278.03;2089602;28;20658;-65
2022/12/12 03:58:50;;;;;;;19.77;13.20;;;;;;;4.89;100.00;100333.91;2097570;28;20604;-65
2022/12/12 04:00:08;;;;;;;18.48;13.38;;;;;;;4.88;100.00;100345.28;2098005;28;20173;-64
2022/12/12 04:01:11;;;;;;;23.65;13.50;;;;;;;4.82;100.00;100341.41;2089640;28;20205;-64
2022/12/12 04:02:18;;;;;;;19.42;13.07;;;;;;;4.82;100.00;100336.69;2097454;28;20177;-64
2022/12/12 04:03:34;;;;;;;19.48;13.50;;;;;;;4.88;100.00;100340.56;2089751;28;20678;-65
2022/12/12 04:04:50;;;;;;;17.48;12.93;;;;;;;4.74;100.00;100328.88;2089462;28;20653;-65
2022/12/12 04:07:30;;;;;;;17.98;13.35;;;;;;;4.89;100.00;100347.63;2095911;28;20201;-65
2022/12/12 04:08:33;;;;;;;16.80;12.13;;;;;;;4.93;100.00;100353.88;2094395;28;20656;-65
2022/12/12 04:14:25;;;;;;;18.25;12.93;;;;;;;4.78;100.00;100324.94;2097718;28;20177;-65
2022/12/12 04:15:46;;;;;;;19.95;13.00;;;;;;;4.77;100.00;100320.63;2097740;28;20230;-65
2022/12/12 04:16:51;;;;;;;18.77;13.35;;;;;;;4.45;100.00;100270.63;2104825;28;20661;-65
2022/12/12 04:18:21;;;;;;;19.58;13.75;;;;;;;5.11;100.00;100364.75;2099552;28;20662;-65
2022/12/12 04:23:58;;;;;;;18.73;13.48;;;;;;;5.19;100.00;100358.03;2096746;28;20187;-65
2022/12/12 04:25:04;;;;;;;20.13;14.70;;;;;;;5.28;100.00;100356.41;2089532;28;20193;-65
2022/12/12 04:27:42;;;;;;;21.55;14.75;;;;;;;5.04;100.00;100318.13;2092700;28;20167;-65
2022/12/12 04:28:51;;;;;;;20.38;14.70;;;;;;;5.42;100.00;100359.06;2104244;28;20162;-65
2022/12/12 04:30:04;;;;;;;19.63;14.20;;;;;;;5.43;100.00;100366.13;2099200;28;20194;-65
2022/12/12 04:31:07;;;;;;;20.45;14.80;;;;;;;5.45;100.00;100372.00;2102991;28;20264;-65
2022/12/12 04:32:20;;;;;;;19.65;14.10;;;;;;;5.43;100.00;100368.88;2097256;28;20196;-65
2022/12/12 04:33:28;;;;;;;18.63;13.88;;;;;;;5.38;100.00;100374.03;2097511;28;20174;-65
2022/12/12 04:34:34;;;;;;;20.30;14.50;;;;;;;5.33;100.00;100380.72;2097518;28;20172;-65
2022/12/12 04:35:40;;;;;;;22.13;15.90;;;;;;;5.30;100.00;100389.78;2097450;28;20535;-65
2022/12/12 04:36:44;;;;;;;19.90;15.02;;;;;;;4.84;100.00;100315.13;2096901;28;20179;-65
2022/12/12 04:37:51;;;;;;;21.42;15.15;;;;;;;5.21;100.00;100374.91;2096862;28;20697;-65
2022/12/12 04:38:52;;;;;;;19.73;14.38;;;;;;;5.30;100.00;100399.97;2097528;28;20555;-65
2022/12/12 04:39:58;;;;;;;22.03;14.50;;;;;;;5.35;100.00;100397.59;2097765;28;20205;-65
2022/12/12 04:40:59;;;;;;;20.15;14.48;;;;;;;5.39;100.00;100397.56;2097238;28;20173;-65
2022/12/12 04:42:03;;;;;;;20.55;15.35;;;;;;;5.34;100.00;100395.25;2105035;28;20181;-65
2022/12/12 04:43:13;;;;;;;19.42;14.40;;;;;;;5.02;100.00;100359.72;2098683;28;20286;-65
2022/12/12 04:44:16;;;;;;;19.65;14.73;;;;;;;4.76;100.00;100315.53;2103119;28;20189;-65
2022/12/12 04:45:20;;;;;;;18.02;13.88;;;;;;;5.30;100.00;100398.00;2099665;28;20645;-65
2022/12/12 04:46:25;;;;;;;20.73;15.35;;;;;;;5.30;100.00;100400.75;2103110;28;20186;-65
2022/12/12 04:47:29;;;;;;;21.75;15.60;;;;;;;5.21;100.00;100383.13;2100858;28;20190;-65
2022/12/12 04:48:37;;;;;;;18.30;14.48;;;;;;;5.25;100.00;100392.16;2102005;28;20248;-65
2022/12/12 04:49:40;;;;;;;19.30;14.18;;;;;;;5.26;100.00;100397.25;2101270;28;20215;-65
2022/12/12 04:50:44;;;;;;;20.27;14.40;;;;;;;5.27;100.00;100395.25;2100521;28;20199;-65
2022/12/12 04:51:50;;;;;;;20.30;15.15;;;;;;;5.28;100.00;100392.13;2102763;28;20255;-65
2022/12/12 04:52:54;;;;;;;18.92;13.70;;;;;;;5.28;100.00;100400.34;2097143;28;20436;-65
2022/12/12 04:54:18;;;;;;;17.95;14.80;;;;;;;5.19;100.00;100405.50;2097422;28;20174;-65
2022/12/12 04:55:24;;;;;;;18.17;13.70;;;;;;;5.18;100.00;100403.19;2101401;28;20188;-65
2022/12/12 04:56:29;;;;;;;18.95;13.15;;;;;;;4.41;100.00;100278.06;2098425;28;20261;-65
2022/12/12 04:57:38;;;;;;;18.08;13.43;;;;;;;5.10;100.00;100396.16;2092298;28;20188;-65
2022/12/12 04:58:39;;;;;;;18.17;13.70;;;;;;;5.04;100.00;100381.28;2097305;28;20265;-65
2022/12/12 04:59:40;;;;;;;19.20;13.40;;;;;;;4.67;100.00;100337.16;2097692;28;20185;-66
2022/12/12 05:00:51;;;;;;;18.30;14.13;;;;;;;4.27;100.00;100280.88;2102847;28;20677;-66
2022/12/12 05:01:58;;;;;;;17.77;13.30;;;;;;;5.03;100.00;100410.69;2089445;28;20725;-66
2022/12/12 05:03:04;;;;;;;17.13;13.27;;;;;;;4.89;100.00;100391.56;2092962;28;20196;-65
2022/12/12 05:04:13;;;;;;;18.27;13.23;;;;;;;4.93;100.00;100430.75;2095137;28;20194;-64
2022/12/12 05:05:20;;;;;;;19.02;13.40;;;;;;;4.99;100.00;100420.94;2090718;28;20269;-65
2022/12/12 05:06:32;;;;;;;17.98;13.68;;;;;;;5.02;100.00;100424.84;2095714;28;20174;-64
2022/12/12 05:07:37;;;;;;;18.88;13.85;;;;;;;5.03;100.00;100426.41;2096014;28;20581;-64
2022/12/12 05:08:44;;;;;;;20.55;14.52;;;;;;;4.89;100.00;100420.97;2096562;28;20181;-61
2022/12/12 05:09:46;;;;;;;19.60;13.63;;;;;;;4.87;100.00;100421.38;2088245;28;20603;-61
2022/12/12 05:10:53;;;;;;;19.40;14.90;;;;;;;4.93;100.00;100436.25;2095431;28;20186;-61
2022/12/12 05:11:53;;;;;;;17.63;13.43;;;;;;;4.95;100.00;100444.09;2096915;28;20185;-66
2022/12/12 05:12:59;;;;;;;19.03;13.60;;;;;;;4.85;100.00;100453.16;2096276;28;20218;-61
2022/12/12 05:13:59;;;;;;;17.58;13.70;;;;;;;4.21;100.00;100337.31;2093818;28;20578;-66
2022/12/12 05:15:00;;;;;;;19.37;13.60;;;;;;;4.96;100.00;100454.69;2095153;28;20271;-67
2022/12/12 05:16:02;;;;;;;18.43;13.83;;;;;;;4.67;100.00;100400.28;2095897;28;20252;-62
2022/12/12 05:17:14;;;;;;;18.50;13.60;;;;;;;4.95;100.00;100450.38;2095849;28;20192;-65
2022/12/12 05:18:15;;;;;;;18.02;13.80;;;;;;;4.63;100.00;100405.00;2096033;28;20200;-65
2022/12/12 05:19:15;;;;;;;17.38;13.30;;;;;;;4.68;100.00;100386.16;2096324;28;20255;-65
2022/12/12 05:20:16;;;;;;;19.80;13.57;;;;;;;5.19;100.00;100457.69;2095659;28;20189;-64